sensor_id;sensor_type;location;lat;lon;timestamp;temperature;humidity
1992;DHT22;997;48.448;8.924;2022-07-17T03:02:22;15.60;99.90
1992;DHT22;997;48.448;8.924;2022-07-17T03:04:48;15.60;99.90
1992;DHT22;997;48.448;8.924;2022-07-17T03:07:14;15.60;99.90
1992;DHT22;997;48.448;8.924;2022-07-17T03:09:40;15.50;99.90
1992;DHT22;997;48.448;8.924;2022-07-17T03:12:06;15.50;99.90
1992;DHT22;997;48.448;8.924;2022-07-17T03:14:32;15.50;99.90
1992;DHT22;997;48.448;8.924;2022-07-17T03:16:58;15.50;99.90
1992;DHT22;997;48.448;8.924;2022-07-17T03:19:24;15.60;99.90
1992;DHT22;997;48.448;8.924;2022-07-17T03:21:49;15.60;99.90
1992;DHT22;997;48.448;8.924;2022-07-17T03:24:16;15.60;99.90
1992;DHT22;997;48.448;8.924;2022-07-17T03:26:41;15.60;99.90
1992;DHT22;997;48.448;8.924;2022-07-17T03:29:07;15.60;99.90
1992;DHT22;997;48.448;8.924;2022-07-17T03:31:34;15.60;99.90
1992;DHT22;997;48.448;8.924;2022-07-17T03:34:00;15.60;99.90
1992;DHT22;997;48.448;8.924;2022-07-17T03:36:26;15.60;99.90
1992;DHT22;997;48.448;8.924;2022-07-17T03:38:52;15.60;99.90
1992;DHT22;997;48.448;8.924;2022-07-17T03:41:19;15.60;99.90
1992;DHT22;997;48.448;8.924;2022-07-17T03:43:45;15.60;99.90
1992;DHT22;997;48.448;8.924;2022-07-17T03:46:10;15.50;99.90
1992;DHT22;997;48.448;8.924;2022-07-17T03:48:37;15.50;99.90
1992;DHT22;997;48.448;8.924;2022-07-17T03:51:03;15.40;99.90
1992;DHT22;997;48.448;8.924;2022-07-17T03:53:30;15.40;99.90
1992;DHT22;997;48.448;8.924;2022-07-17T03:55:56;15.30;99.90
1992;DHT22;997;48.448;8.924;2022-07-17T03:58:21;15.30;99.90
1992;DHT22;997;48.448;8.924;2022-07-17T04:00:47;15.20;99.90
1992;DHT22;997;48.448;8.924;2022-07-17T04:03:13;15.20;99.90
1992;DHT22;997;48.448;8.924;2022-07-17T04:05:39;15.20;99.90
1992;DHT22;997;48.448;8.924;2022-07-17T04:08:05;15.20;99.90
1992;DHT22;997;48.448;8.924;2022-07-17T04:10:31;15.20;99.90
1992;DHT22;997;48.448;8.924;2022-07-17T04:12:57;15.20;99.90
1992;DHT22;997;48.448;8.924;2022-07-17T04:15:23;15.20;99.90
1992;DHT22;997;48.448;8.924;2022-07-17T04:18:07;15.10;99.90
1992;DHT22;997;48.448;8.924;2022-07-17T04:20:34;15.00;99.90
1992;DHT22;997;48.448;8.924;2022-07-17T04:23:00;15.00;99.90
1992;DHT22;997;48.448;8.924;2022-07-17T04:25:25;14.90;99.90
1992;DHT22;997;48.448;8.924;2022-07-17T04:27:52;14.90;99.90
1992;DHT22;997;48.448;8.924;2022-07-17T04:30:18;14.80;99.90
1992;DHT22;997;48.448;8.924;2022-07-17T04:32:43;14.80;99.90
1992;DHT22;997;48.448;8.924;2022-07-17T04:35:09;14.70;99.90
1992;DHT22;997;48.448;8.924;2022-07-17T04:37:35;14.80;99.90
1992;DHT22;997;48.448;8.924;2022-07-17T04:40:02;14.80;99.90
1992;DHT22;997;48.448;8.924;2022-07-17T04:42:28;14.80;99.90
1992;DHT22;997;48.448;8.924;2022-07-17T04:44:54;14.70;99.90
1992;DHT22;997;48.448;8.924;2022-07-17T04:47:20;14.70;99.90
1992;DHT22;997;48.448;8.924;2022-07-17T04:49:45;14.70;99.90
1992;DHT22;997;48.448;8.924;2022-07-17T04:52:12;14.60;99.90
1992;DHT22;997;48.448;8.924;2022-07-17T04:54:38;14.70;99.90
1992;DHT22;997;48.448;8.924;2022-07-17T04:57:04;14.70;99.90
1992;DHT22;997;48.448;8.924;2022-07-17T04:59:30;14.70;99.90
1992;DHT22;997;48.448;8.924;2022-07-17T05:01:56;14.80;99.90
1992;DHT22;997;48.448;8.924;2022-07-17T05:04:22;14.80;99.90
1992;DHT22;997;48.448;8.924;2022-07-17T05:06:48;14.80;99.90
1992;DHT22;997;48.448;8.924;2022-07-17T05:09:14;14.80;99.90
1992;DHT22;997;48.448;8.924;2022-07-17T05:11:40;14.90;99.90
1992;DHT22;997;48.448;8.924;2022-07-17T05:14:06;14.80;99.90
1992;DHT22;997;48.448;8.924;2022-07-17T05:16:32;14.70;99.90
1992;DHT22;997;48.448;8.924;2022-07-17T05:18:58;14.70;99.90
1992;DHT22;997;48.448;8.924;2022-07-17T05:21:24;14.70;99.90
1992;DHT22;997;48.448;8.924;2022-07-17T05:23:50;14.70;99.90
1992;DHT22;997;48.448;8.924;2022-07-17T05:26:15;14.80;99.90
1992;DHT22;997;48.448;8.924;2022-07-17T05:28:42;14.90;99.90
1992;DHT22;997;48.448;8.924;2022-07-17T05:31:07;15.00;99.90
1992;DHT22;997;48.448;8.924;2022-07-17T05:33:33;15.00;99.90
1992;DHT22;997;48.448;8.924;2022-07-17T05:36:00;15.20;99.90
1992;DHT22;997;48.448;8.924;2022-07-17T05:38:25;15.20;99.90
1992;DHT22;997;48.448;8.924;2022-07-17T05:40:51;15.30;99.90
1992;DHT22;997;48.448;8.924;2022-07-17T05:43:17;15.40;99.90
1992;DHT22;997;48.448;8.924;2022-07-17T05:45:43;15.40;99.90
1992;DHT22;997;48.448;8.924;2022-07-17T05:48:08;15.50;99.90
1992;DHT22;997;48.448;8.924;2022-07-17T05:50:34;15.60;99.90
1992;DHT22;997;48.448;8.924;2022-07-17T05:53:00;15.80;99.90
1992;DHT22;997;48.448;8.924;2022-07-17T05:55:26;15.90;99.90
1992;DHT22;997;48.448;8.924;2022-07-17T05:57:52;16.10;99.90
1992;DHT22;997;48.448;8.924;2022-07-17T06:00:18;16.30;99.90
1992;DHT22;997;48.448;8.924;2022-07-17T06:02:44;16.40;99.90
1992;DHT22;997;48.448;8.924;2022-07-17T06:05:10;16.50;99.90
1992;DHT22;997;48.448;8.924;2022-07-17T06:07:37;16.50;99.90
1992;DHT22;997;48.448;8.924;2022-07-17T06:10:06;16.60;99.90
1992;DHT22;997;48.448;8.924;2022-07-17T06:12:32;16.70;99.90
1992;DHT22;997;48.448;8.924;2022-07-17T06:14:58;16.80;99.90
1992;DHT22;997;48.448;8.924;2022-07-17T06:17:25;16.90;99.90
1992;DHT22;997;48.448;8.924;2022-07-17T06:19:51;17.00;99.90
1992;DHT22;997;48.448;8.924;2022-07-17T06:22:21;17.10;99.90
1992;DHT22;997;48.448;8.924;2022-07-17T06:24:46;17.20;99.90
1992;DHT22;997;48.448;8.924;2022-07-17T06:27:14;17.40;99.90
1992;DHT22;997;48.448;8.924;2022-07-17T06:29:39;17.70;99.90
1992;DHT22;997;48.448;8.924;2022-07-17T06:32:06;17.70;99.90
1992;DHT22;997;48.448;8.924;2022-07-17T06:34:32;17.80;99.90
1992;DHT22;997;48.448;8.924;2022-07-17T06:36:58;18.00;99.90
1992;DHT22;997;48.448;8.924;2022-07-17T06:39:25;17.90;99.90
1992;DHT22;997;48.448;8.924;2022-07-17T06:41:51;17.80;99.90
1992;DHT22;997;48.448;8.924;2022-07-17T06:44:17;17.70;99.90
1992;DHT22;997;48.448;8.924;2022-07-17T06:46:43;17.60;99.90
1992;DHT22;997;48.448;8.924;2022-07-17T06:49:09;17.60;99.90
1992;DHT22;997;48.448;8.924;2022-07-17T06:51:35;17.70;99.90
1992;DHT22;997;48.448;8.924;2022-07-17T06:54:01;17.80;99.90
1992;DHT22;997;48.448;8.924;2022-07-17T06:56:27;17.90;99.90
1992;DHT22;997;48.448;8.924;2022-07-17T06:58:53;18.10;99.90
1992;DHT22;997;48.448;8.924;2022-07-17T07:01:18;18.30;99.90
1992;DHT22;997;48.448;8.924;2022-07-17T07:03:44;18.60;99.90
1992;DHT22;997;48.448;8.924;2022-07-17T07:06:10;18.90;99.90
1992;DHT22;997;48.448;8.924;2022-07-17T07:08:36;19.10;99.90
1992;DHT22;997;48.448;8.924;2022-07-17T07:11:03;19.30;99.90
1992;DHT22;997;48.448;8.924;2022-07-17T07:13:29;19.30;99.90
1992;DHT22;997;48.448;8.924;2022-07-17T07:15:54;19.40;99.90
1992;DHT22;997;48.448;8.924;2022-07-17T07:18:21;19.30;99.90
1992;DHT22;997;48.448;8.924;2022-07-17T07:20:47;19.30;99.90
1992;DHT22;997;48.448;8.924;2022-07-17T07:23:13;19.30;99.90
1992;DHT22;997;48.448;8.924;2022-07-17T07:25:39;19.30;99.90
1992;DHT22;997;48.448;8.924;2022-07-17T07:28:05;19.40;99.90
1992;DHT22;997;48.448;8.924;2022-07-17T07:30:31;19.60;99.90
1992;DHT22;997;48.448;8.924;2022-07-17T07:32:57;19.70;99.90
1992;DHT22;997;48.448;8.924;2022-07-17T07:35:23;19.70;99.90
1992;DHT22;997;48.448;8.924;2022-07-17T07:37:49;19.60;99.90
1992;DHT22;997;48.448;8.924;2022-07-17T07:40:15;19.70;99.90
1992;DHT22;997;48.448;8.924;2022-07-17T07:42:41;19.80;99.90
1992;DHT22;997;48.448;8.924;2022-07-17T07:45:08;20.00;99.90
1992;DHT22;997;48.448;8.924;2022-07-17T07:47:43;20.10;99.90
1992;DHT22;997;48.448;8.924;2022-07-17T07:50:10;20.20;99.90
1992;DHT22;997;48.448;8.924;2022-07-17T07:52:37;20.40;99.90
1992;DHT22;997;48.448;8.924;2022-07-17T07:55:04;20.60;99.90
1992;DHT22;997;48.448;8.924;2022-07-17T07:57:30;20.70;99.90
1992;DHT22;997;48.448;8.924;2022-07-17T07:59:56;20.90;99.90
1992;DHT22;997;48.448;8.924;2022-07-17T08:02:22;21.10;99.90
1992;DHT22;997;48.448;8.924;2022-07-17T08:04:48;21.30;99.90
1992;DHT22;997;48.448;8.924;2022-07-17T08:07:14;21.40;99.90
1992;DHT22;997;48.448;8.924;2022-07-17T08:09:40;21.40;99.90
1992;DHT22;997;48.448;8.924;2022-07-17T08:12:06;21.60;99.90
1992;DHT22;997;48.448;8.924;2022-07-17T08:14:32;21.80;99.90
1992;DHT22;997;48.448;8.924;2022-07-17T08:16:58;21.90;99.90
1992;DHT22;997;48.448;8.924;2022-07-17T08:19:24;21.90;99.90
1992;DHT22;997;48.448;8.924;2022-07-17T08:21:50;22.00;99.90
1992;DHT22;997;48.448;8.924;2022-07-17T08:24:15;22.10;99.90
1992;DHT22;997;48.448;8.924;2022-07-17T08:26:43;22.40;99.90
1992;DHT22;997;48.448;8.924;2022-07-17T08:29:09;22.50;99.90
1992;DHT22;997;48.448;8.924;2022-07-17T08:31:35;22.60;99.90
1992;DHT22;997;48.448;8.924;2022-07-17T08:34:00;22.80;99.90
1992;DHT22;997;48.448;8.924;2022-07-17T08:36:27;22.90;99.90
1992;DHT22;997;48.448;8.924;2022-07-17T08:38:52;23.00;99.90
1992;DHT22;997;48.448;8.924;2022-07-17T08:41:18;23.20;99.90
1992;DHT22;997;48.448;8.924;2022-07-17T08:43:48;23.40;99.90
1992;DHT22;997;48.448;8.924;2022-07-17T08:46:14;23.40;99.90
1992;DHT22;997;48.448;8.924;2022-07-17T08:48:42;23.70;99.90
1992;DHT22;997;48.448;8.924;2022-07-17T08:51:10;23.90;99.90
1992;DHT22;997;48.448;8.924;2022-07-17T08:53:37;24.00;99.90
1992;DHT22;997;48.448;8.924;2022-07-17T08:56:03;24.10;99.90
1992;DHT22;997;48.448;8.924;2022-07-17T08:58:30;24.20;99.90
1992;DHT22;997;48.448;8.924;2022-07-17T09:03:25;24.30;99.90
1992;DHT22;997;48.448;8.924;2022-07-17T09:05:51;24.30;99.90
1992;DHT22;997;48.448;8.924;2022-07-17T09:08:20;24.30;99.90
1992;DHT22;997;48.448;8.924;2022-07-17T09:10:49;24.30;99.90
1992;DHT22;997;48.448;8.924;2022-07-17T09:15:42;24.40;99.90
1992;DHT22;997;48.448;8.924;2022-07-17T09:18:08;24.50;99.90
1992;DHT22;997;48.448;8.924;2022-07-17T09:20:34;24.60;99.90
1992;DHT22;997;48.448;8.924;2022-07-17T09:23:02;24.70;99.90
1992;DHT22;997;48.448;8.924;2022-07-17T09:25:40;24.90;99.90
1992;DHT22;997;48.448;8.924;2022-07-17T09:28:08;24.90;99.90
1992;DHT22;997;48.448;8.924;2022-07-17T09:30:39;25.00;99.90
1992;DHT22;997;48.448;8.924;2022-07-17T09:33:10;25.10;99.90
1992;DHT22;997;48.448;8.924;2022-07-17T09:36:08;25.20;99.10
1992;DHT22;997;48.448;8.924;2022-07-17T09:38:37;25.40;98.80
1992;DHT22;997;48.448;8.924;2022-07-17T09:41:14;25.50;97.20
1992;DHT22;997;48.448;8.924;2022-07-17T09:43:49;25.70;97.90
1992;DHT22;997;48.448;8.924;2022-07-17T09:46:21;25.80;96.90
1992;DHT22;997;48.448;8.924;2022-07-17T09:48:51;25.90;97.00
1992;DHT22;997;48.448;8.924;2022-07-17T09:53:52;25.80;94.50
1992;DHT22;997;48.448;8.924;2022-07-17T09:56:19;25.80;94.10
1992;DHT22;997;48.448;8.924;2022-07-17T09:59:13;26.00;93.50
1992;DHT22;997;48.448;8.924;2022-07-17T10:01:41;26.10;94.30
1992;DHT22;997;48.448;8.924;2022-07-17T10:04:08;26.20;93.40
1992;DHT22;997;48.448;8.924;2022-07-17T10:06:36;26.30;93.60
1992;DHT22;997;48.448;8.924;2022-07-17T10:09:03;26.40;92.20
1992;DHT22;997;48.448;8.924;2022-07-17T10:11:38;26.50;91.70
1992;DHT22;997;48.448;8.924;2022-07-17T10:14:07;26.40;92.00
1992;DHT22;997;48.448;8.924;2022-07-17T10:16:34;26.60;91.60
1992;DHT22;997;48.448;8.924;2022-07-17T10:19:19;26.70;90.70
1992;DHT22;997;48.448;8.924;2022-07-17T10:22:00;26.80;90.20
1992;DHT22;997;48.448;8.924;2022-07-17T10:24:28;26.90;89.00
1992;DHT22;997;48.448;8.924;2022-07-17T10:26:55;27.00;84.10
1992;DHT22;997;48.448;8.924;2022-07-17T10:29:32;27.00;84.30
1992;DHT22;997;48.448;8.924;2022-07-17T10:32:00;27.10;82.90
1992;DHT22;997;48.448;8.924;2022-07-17T10:37:25;27.30;83.60
1992;DHT22;997;48.448;8.924;2022-07-17T10:39:55;27.10;79.20
1992;DHT22;997;48.448;8.924;2022-07-17T10:45:29;27.20;79.50
1992;DHT22;997;48.448;8.924;2022-07-17T10:50:38;27.50;79.40
1992;DHT22;997;48.448;8.924;2022-07-17T10:53:11;27.60;79.30
1992;DHT22;997;48.448;8.924;2022-07-17T10:55:39;27.50;74.30
1992;DHT22;997;48.448;8.924;2022-07-17T10:58:31;27.30;74.30
1992;DHT22;997;48.448;8.924;2022-07-17T11:01:17;27.10;74.00
1992;DHT22;997;48.448;8.924;2022-07-17T11:03:50;27.30;74.20
1992;DHT22;997;48.448;8.924;2022-07-17T11:17:04;27.70;60.00
1992;DHT22;997;48.448;8.924;2022-07-17T11:19:38;27.80;64.20
1992;DHT22;997;48.448;8.924;2022-07-17T11:22:06;28.00;62.60
1992;DHT22;997;48.448;8.924;2022-07-17T11:24:41;28.20;64.50
1992;DHT22;997;48.448;8.924;2022-07-17T11:27:11;28.00;62.30
1992;DHT22;997;48.448;8.924;2022-07-17T11:29:40;27.90;65.30
1992;DHT22;997;48.448;8.924;2022-07-17T11:32:07;28.10;60.80
1992;DHT22;997;48.448;8.924;2022-07-17T11:34:33;27.70;59.90
1992;DHT22;997;48.448;8.924;2022-07-17T11:37:05;27.80;60.30
1992;DHT22;997;48.448;8.924;2022-07-17T11:39:45;27.70;58.20
1992;DHT22;997;48.448;8.924;2022-07-17T11:42:19;27.90;59.90
1992;DHT22;997;48.448;8.924;2022-07-17T11:44:51;28.10;59.50
1992;DHT22;997;48.448;8.924;2022-07-17T11:47:27;28.40;62.10
1992;DHT22;997;48.448;8.924;2022-07-17T11:52:42;29.00;57.00
1992;DHT22;997;48.448;8.924;2022-07-17T11:55:08;29.20;55.60
1992;DHT22;997;48.448;8.924;2022-07-17T11:57:43;29.30;57.40
1992;DHT22;997;48.448;8.924;2022-07-17T12:00:11;29.30;52.60
1992;DHT22;997;48.448;8.924;2022-07-17T12:03:38;29.30;52.80
1992;DHT22;997;48.448;8.924;2022-07-17T12:06:05;29.30;53.20
1992;DHT22;997;48.448;8.924;2022-07-17T12:08:31;29.50;53.70
1992;DHT22;997;48.448;8.924;2022-07-17T12:11:08;29.60;50.20
1992;DHT22;997;48.448;8.924;2022-07-17T12:13:43;29.60;49.40
1992;DHT22;997;48.448;8.924;2022-07-17T12:16:30;29.60;50.80
1992;DHT22;997;48.448;8.924;2022-07-17T12:19:04;29.60;49.40
1992;DHT22;997;48.448;8.924;2022-07-17T12:21:32;29.40;49.40
1992;DHT22;997;48.448;8.924;2022-07-17T12:24:03;29.20;51.10
1992;DHT22;997;48.448;8.924;2022-07-17T12:26:31;29.10;51.70
1992;DHT22;997;48.448;8.924;2022-07-17T12:28:58;29.30;51.20
1992;DHT22;997;48.448;8.924;2022-07-17T12:31:25;29.40;48.90
1992;DHT22;997;48.448;8.924;2022-07-17T12:33:52;29.40;50.70
1992;DHT22;997;48.448;8.924;2022-07-17T12:36:20;29.70;51.50
1992;DHT22;997;48.448;8.924;2022-07-17T12:38:47;30.00;51.20
1992;DHT22;997;48.448;8.924;2022-07-17T12:41:14;30.20;49.80
1992;DHT22;997;48.448;8.924;2022-07-17T12:43:41;30.40;48.80
1992;DHT22;997;48.448;8.924;2022-07-17T12:46:08;30.50;48.50
1992;DHT22;997;48.448;8.924;2022-07-17T12:48:34;30.60;48.10
1992;DHT22;997;48.448;8.924;2022-07-17T12:51:00;30.60;49.40
1992;DHT22;997;48.448;8.924;2022-07-17T12:53:26;30.70;48.70
1992;DHT22;997;48.448;8.924;2022-07-17T12:55:52;30.90;46.10
1992;DHT22;997;48.448;8.924;2022-07-17T12:58:18;30.70;46.20
1992;DHT22;997;48.448;8.924;2022-07-17T13:00:44;30.80;47.10
1992;DHT22;997;48.448;8.924;2022-07-17T13:03:10;30.70;45.20
1992;DHT22;997;48.448;8.924;2022-07-17T13:05:37;30.90;46.50
1992;DHT22;997;48.448;8.924;2022-07-17T13:08:03;30.90;45.40
1992;DHT22;997;48.448;8.924;2022-07-17T13:10:30;30.60;44.70
1992;DHT22;997;48.448;8.924;2022-07-17T13:12:58;30.60;45.40
1992;DHT22;997;48.448;8.924;2022-07-17T13:15:24;30.70;45.80
1992;DHT22;997;48.448;8.924;2022-07-17T13:17:50;30.70;45.10
1992;DHT22;997;48.448;8.924;2022-07-17T13:20:16;31.00;45.70
1992;DHT22;997;48.448;8.924;2022-07-17T13:22:42;31.30;45.20
1992;DHT22;997;48.448;8.924;2022-07-17T13:25:08;31.50;44.20
1992;DHT22;997;48.448;8.924;2022-07-17T13:27:34;31.80;43.10
1992;DHT22;997;48.448;8.924;2022-07-17T13:30:00;31.80;42.30
1992;DHT22;997;48.448;8.924;2022-07-17T13:32:26;31.70;40.50
1992;DHT22;997;48.448;8.924;2022-07-17T13:34:52;31.60;39.50
1992;DHT22;997;48.448;8.924;2022-07-17T13:37:18;31.60;40.40
1992;DHT22;997;48.448;8.924;2022-07-17T13:39:44;31.60;40.90
1992;DHT22;997;48.448;8.924;2022-07-17T13:42:11;31.70;39.50
1992;DHT22;997;48.448;8.924;2022-07-17T13:44:37;31.70;39.90
1992;DHT22;997;48.448;8.924;2022-07-17T13:47:02;31.70;41.70
1992;DHT22;997;48.448;8.924;2022-07-17T13:49:29;31.80;41.70
1992;DHT22;997;48.448;8.924;2022-07-17T13:51:55;31.80;41.20
1992;DHT22;997;48.448;8.924;2022-07-17T13:54:21;32.00;41.10
1992;DHT22;997;48.448;8.924;2022-07-17T13:56:48;32.20;40.80
1992;DHT22;997;48.448;8.924;2022-07-17T13:59:14;32.30;41.20
1992;DHT22;997;48.448;8.924;2022-07-17T14:01:40;32.60;40.10
1992;DHT22;997;48.448;8.924;2022-07-17T14:04:06;32.90;39.90
1992;DHT22;997;48.448;8.924;2022-07-17T14:06:32;33.10;39.50
1992;DHT22;997;48.448;8.924;2022-07-17T14:08:57;33.10;38.20
1992;DHT22;997;48.448;8.924;2022-07-17T14:11:23;33.40;39.40
1992;DHT22;997;48.448;8.924;2022-07-17T14:13:49;33.60;39.10
1992;DHT22;997;48.448;8.924;2022-07-17T14:16:16;33.90;38.40
1992;DHT22;997;48.448;8.924;2022-07-17T14:18:43;34.10;39.00
1992;DHT22;997;48.448;8.924;2022-07-17T14:21:31;33.80;38.40
1992;DHT22;997;48.448;8.924;2022-07-17T14:23:58;33.80;38.40
1992;DHT22;997;48.448;8.924;2022-07-17T14:26:26;33.80;38.80
1992;DHT22;997;48.448;8.924;2022-07-17T14:28:52;33.90;38.70
1992;DHT22;997;48.448;8.924;2022-07-17T14:31:18;33.90;38.30
1992;DHT22;997;48.448;8.924;2022-07-17T14:33:45;33.90;39.00
1992;DHT22;997;48.448;8.924;2022-07-17T14:36:11;33.90;37.80
1992;DHT22;997;48.448;8.924;2022-07-17T14:38:39;34.10;38.70
1992;DHT22;997;48.448;8.924;2022-07-17T14:41:05;34.30;39.30
1992;DHT22;997;48.448;8.924;2022-07-17T14:43:32;34.50;38.80
1992;DHT22;997;48.448;8.924;2022-07-17T14:45:58;34.40;39.00
1992;DHT22;997;48.448;8.924;2022-07-17T14:48:24;34.60;39.90
1992;DHT22;997;48.448;8.924;2022-07-17T14:50:50;34.80;38.20
1992;DHT22;997;48.448;8.924;2022-07-17T14:53:16;35.20;38.90
1992;DHT22;997;48.448;8.924;2022-07-17T14:55:42;34.90;38.50
1992;DHT22;997;48.448;8.924;2022-07-17T14:58:08;35.10;38.00
1992;DHT22;997;48.448;8.924;2022-07-17T15:00:34;35.40;39.50
1992;DHT22;997;48.448;8.924;2022-07-17T15:03:00;35.30;37.60
1992;DHT22;997;48.448;8.924;2022-07-17T15:05:26;35.30;37.70
1992;DHT22;997;48.448;8.924;2022-07-17T15:07:51;35.30;37.00
1992;DHT22;997;48.448;8.924;2022-07-17T15:10:17;35.70;37.50
1992;DHT22;997;48.448;8.924;2022-07-17T15:12:43;35.70;37.10
1992;DHT22;997;48.448;8.924;2022-07-17T15:15:09;35.60;37.00
1992;DHT22;997;48.448;8.924;2022-07-17T15:17:35;35.60;37.70
1992;DHT22;997;48.448;8.924;2022-07-17T15:20:02;36.00;39.30
1992;DHT22;997;48.448;8.924;2022-07-17T15:22:29;36.20;38.50
1992;DHT22;997;48.448;8.924;2022-07-17T15:24:55;36.60;37.60
1992;DHT22;997;48.448;8.924;2022-07-17T15:27:21;36.90;36.60
1992;DHT22;997;48.448;8.924;2022-07-17T15:29:47;37.00;37.10
1992;DHT22;997;48.448;8.924;2022-07-17T15:32:13;37.20;37.40
1992;DHT22;997;48.448;8.924;2022-07-17T15:34:39;37.40;36.40
1992;DHT22;997;48.448;8.924;2022-07-17T15:37:05;37.60;36.50
1992;DHT22;997;48.448;8.924;2022-07-17T15:39:31;37.60;36.30
1992;DHT22;997;48.448;8.924;2022-07-17T15:41:57;37.60;36.40
1992;DHT22;997;48.448;8.924;2022-07-17T15:44:23;38.20;36.80
1992;DHT22;997;48.448;8.924;2022-07-17T15:46:49;38.50;36.30
1992;DHT22;997;48.448;8.924;2022-07-17T15:49:15;38.90;36.30
1992;DHT22;997;48.448;8.924;2022-07-17T15:51:41;39.00;34.50
1992;DHT22;997;48.448;8.924;2022-07-17T15:54:07;38.70;35.50
1992;DHT22;997;48.448;8.924;2022-07-17T15:56:34;38.90;35.00
1992;DHT22;997;48.448;8.924;2022-07-17T15:59:01;39.10;35.70
1992;DHT22;997;48.448;8.924;2022-07-17T16:01:27;39.30;34.80
1992;DHT22;997;48.448;8.924;2022-07-17T16:03:53;39.30;34.50
1992;DHT22;997;48.448;8.924;2022-07-17T16:06:20;39.00;34.20
1992;DHT22;997;48.448;8.924;2022-07-17T16:08:45;39.00;33.60
1992;DHT22;997;48.448;8.924;2022-07-17T16:11:12;39.20;34.90
1992;DHT22;997;48.448;8.924;2022-07-17T16:13:37;39.10;34.90
1992;DHT22;997;48.448;8.924;2022-07-17T16:16:03;39.10;35.60
1992;DHT22;997;48.448;8.924;2022-07-17T16:18:29;39.20;35.10
1992;DHT22;997;48.448;8.924;2022-07-17T16:20:56;39.40;35.20
1992;DHT22;997;48.448;8.924;2022-07-17T16:23:21;39.20;35.50
1992;DHT22;997;48.448;8.924;2022-07-17T16:25:49;39.10;35.30
1992;DHT22;997;48.448;8.924;2022-07-17T16:28:14;38.80;36.00
1992;DHT22;997;48.448;8.924;2022-07-17T16:30:41;39.30;36.30
1992;DHT22;997;48.448;8.924;2022-07-17T16:33:07;39.40;35.10
1992;DHT22;997;48.448;8.924;2022-07-17T16:35:33;39.20;35.40
1992;DHT22;997;48.448;8.924;2022-07-17T16:37:59;39.80;35.50
1992;DHT22;997;48.448;8.924;2022-07-17T16:40:25;39.70;35.00
1992;DHT22;997;48.448;8.924;2022-07-17T16:42:51;39.70;35.10
1992;DHT22;997;48.448;8.924;2022-07-17T16:45:16;39.90;35.00
1992;DHT22;997;48.448;8.924;2022-07-17T16:47:43;40.00;35.20
1992;DHT22;997;48.448;8.924;2022-07-17T16:50:09;40.20;34.90
1992;DHT22;997;48.448;8.924;2022-07-17T16:52:35;40.40;34.70
1992;DHT22;997;48.448;8.924;2022-07-17T16:55:01;40.00;34.00
1992;DHT22;997;48.448;8.924;2022-07-17T16:57:27;40.00;34.30
1992;DHT22;997;48.448;8.924;2022-07-17T16:59:53;40.10;34.50
1992;DHT22;997;48.448;8.924;2022-07-17T17:02:19;39.80;34.70
1992;DHT22;997;48.448;8.924;2022-07-17T17:04:45;40.00;35.20
1992;DHT22;997;48.448;8.924;2022-07-17T17:07:11;40.30;34.80
1992;DHT22;997;48.448;8.924;2022-07-17T17:09:38;40.40;35.20
1992;DHT22;997;48.448;8.924;2022-07-17T17:12:04;40.70;35.20
1992;DHT22;997;48.448;8.924;2022-07-17T17:14:30;40.60;34.10
1992;DHT22;997;48.448;8.924;2022-07-17T17:16:57;40.20;34.60
1992;DHT22;997;48.448;8.924;2022-07-17T17:19:23;40.10;34.30
1992;DHT22;997;48.448;8.924;2022-07-17T17:21:49;40.30;34.50
1992;DHT22;997;48.448;8.924;2022-07-17T17:24:15;40.10;33.90
1992;DHT22;997;48.448;8.924;2022-07-17T17:26:41;39.80;34.70
1992;DHT22;997;48.448;8.924;2022-07-17T17:29:07;39.70;34.50
1992;DHT22;997;48.448;8.924;2022-07-17T17:31:33;40.00;34.60
1992;DHT22;997;48.448;8.924;2022-07-17T17:33:59;40.50;34.60
1992;DHT22;997;48.448;8.924;2022-07-17T17:36:25;40.50;33.70
1992;DHT22;997;48.448;8.924;2022-07-17T17:38:51;40.40;33.50
1992;DHT22;997;48.448;8.924;2022-07-17T17:41:17;40.70;33.60
1992;DHT22;997;48.448;8.924;2022-07-17T17:43:43;40.90;33.60
1992;DHT22;997;48.448;8.924;2022-07-17T17:46:09;40.80;32.80
1992;DHT22;997;48.448;8.924;2022-07-17T17:48:35;40.10;33.00
1992;DHT22;997;48.448;8.924;2022-07-17T17:51:01;39.30;33.50
1992;DHT22;997;48.448;8.924;2022-07-17T17:53:28;37.90;34.10
1992;DHT22;997;48.448;8.924;2022-07-17T17:55:53;36.90;34.80
1992;DHT22;997;48.448;8.924;2022-07-17T17:58:19;36.00;35.60
1992;DHT22;997;48.448;8.924;2022-07-17T18:00:45;35.10;36.30
1992;DHT22;997;48.448;8.924;2022-07-17T18:03:11;34.30;37.20
1992;DHT22;997;48.448;8.924;2022-07-17T18:05:38;33.70;37.80
1992;DHT22;997;48.448;8.924;2022-07-17T18:08:05;33.20;37.80
1992;DHT22;997;48.448;8.924;2022-07-17T18:10:31;32.50;38.50
1992;DHT22;997;48.448;8.924;2022-07-17T18:12:57;31.90;39.20
1992;DHT22;997;48.448;8.924;2022-07-17T18:15:23;31.40;39.40
1992;DHT22;997;48.448;8.924;2022-07-17T18:17:48;31.00;40.00
1992;DHT22;997;48.448;8.924;2022-07-17T18:20:16;30.50;40.40
1992;DHT22;997;48.448;8.924;2022-07-17T18:22:42;30.30;41.40
1992;DHT22;997;48.448;8.924;2022-07-17T18:25:08;30.20;41.90
1992;DHT22;997;48.448;8.924;2022-07-17T18:27:35;29.70;41.80
1992;DHT22;997;48.448;8.924;2022-07-17T18:30:01;29.50;42.10
1992;DHT22;997;48.448;8.924;2022-07-17T18:32:28;29.50;42.70
1992;DHT22;997;48.448;8.924;2022-07-17T18:34:54;29.30;42.70
1992;DHT22;997;48.448;8.924;2022-07-17T18:37:21;29.20;42.80
1992;DHT22;997;48.448;8.924;2022-07-17T18:39:47;29.10;42.80
1992;DHT22;997;48.448;8.924;2022-07-17T18:42:13;29.20;43.30
1992;DHT22;997;48.448;8.924;2022-07-17T18:44:39;29.00;43.30
1992;DHT22;997;48.448;8.924;2022-07-17T18:47:05;28.80;43.80
1992;DHT22;997;48.448;8.924;2022-07-17T18:49:31;28.80;44.20
1992;DHT22;997;48.448;8.924;2022-07-17T18:51:58;28.80;44.80
1992;DHT22;997;48.448;8.924;2022-07-17T18:54:23;28.80;44.80
1992;DHT22;997;48.448;8.924;2022-07-17T18:56:49;28.80;44.20
1992;DHT22;997;48.448;8.924;2022-07-17T18:59:15;28.70;44.90
1992;DHT22;997;48.448;8.924;2022-07-17T19:01:41;28.70;45.00
1992;DHT22;997;48.448;8.924;2022-07-17T19:04:07;28.80;45.20
1992;DHT22;997;48.448;8.924;2022-07-17T19:06:33;28.70;45.10
1992;DHT22;997;48.448;8.924;2022-07-17T19:09:05;28.70;44.90
1992;DHT22;997;48.448;8.924;2022-07-17T19:11:31;28.40;44.60
1992;DHT22;997;48.448;8.924;2022-07-17T19:13:57;28.30;44.70
1992;DHT22;997;48.448;8.924;2022-07-17T19:16:24;28.10;44.70
1992;DHT22;997;48.448;8.924;2022-07-17T19:18:51;28.00;44.70
1992;DHT22;997;48.448;8.924;2022-07-17T19:21:18;28.00;45.60
1992;DHT22;997;48.448;8.924;2022-07-17T19:23:43;28.00;46.20
1992;DHT22;997;48.448;8.924;2022-07-17T19:26:09;28.00;46.40
1992;DHT22;997;48.448;8.924;2022-07-17T19:28:36;28.00;46.30
1992;DHT22;997;48.448;8.924;2022-07-17T19:31:02;28.10;45.90
1992;DHT22;997;48.448;8.924;2022-07-17T19:33:28;27.90;45.50
1992;DHT22;997;48.448;8.924;2022-07-17T19:35:54;27.70;45.80
1992;DHT22;997;48.448;8.924;2022-07-17T19:38:21;27.60;45.60
1992;DHT22;997;48.448;8.924;2022-07-17T19:40:48;27.40;45.80
1992;DHT22;997;48.448;8.924;2022-07-17T19:43:14;27.40;46.10
1992;DHT22;997;48.448;8.924;2022-07-17T19:45:40;27.10;46.20
1992;DHT22;997;48.448;8.924;2022-07-17T19:48:07;27.10;46.60